createdAt,value
2023-03-02T00:00:43.037Z,84.60
2023-03-02T00:05:56.309Z,80.30
2023-03-02T00:11:02.500Z,79.40
2023-03-02T00:16:09.708Z,78.10
2023-03-02T00:21:15.409Z,78.60
2023-03-02T00:26:21.429Z,75.10
2023-03-02T00:31:27.494Z,81.40
2023-03-02T00:36:33.633Z,93.20
2023-03-02T00:41:39.393Z,86.90
2023-03-02T00:46:45.528Z,88.50
2023-03-02T00:51:51.268Z,87.30
2023-03-02T00:56:57.368Z,85.30
2023-03-02T01:02:04.271Z,78.10
2023-03-02T01:07:12.726Z,77.70
2023-03-02T01:12:18.643Z,74.90
2023-03-02T01:17:25.334Z,82.60
2023-03-02T01:22:30.887Z,85.80
2023-03-02T01:27:37.037Z,99.50
2023-03-02T01:32:42.811Z,94.70
2023-03-02T01:37:48.642Z,96.50
2023-03-02T01:43:02.559Z,90.60
2023-03-02T01:48:11.175Z,84.20
2023-03-02T01:53:18.820Z,83.60
2023-03-02T01:58:25.777Z,87.70
2023-03-02T02:03:32.385Z,79.80
2023-03-02T02:08:39.272Z,77.20
2023-03-02T02:13:46.153Z,66.70
2023-03-02T02:18:52.661Z,66.90
2023-03-02T02:24:07.646Z,62.40
2023-03-02T02:29:19.040Z,64.90
2023-03-02T02:34:30.656Z,64.70
2023-03-02T02:39:40.835Z,62.50
2023-03-02T02:44:47.201Z,56.00
2023-03-02T02:49:54.844Z,59.50
2023-03-02T02:55:00.911Z,60.20
2023-03-02T03:00:15.108Z,60.60
2023-03-02T03:05:20.869Z,65.80
2023-03-02T03:10:35.087Z,58.30
2023-03-02T03:15:41.092Z,52.10
2023-03-02T03:20:46.841Z,59.20
2023-03-02T03:25:52.652Z,56.60
2023-03-02T03:30:58.879Z,63.10
2023-03-02T03:36:06.126Z,56.30
2023-03-02T03:41:13.091Z,56.80
2023-03-02T03:46:19.624Z,57.70
2023-03-02T03:51:26.551Z,62.10
2023-03-02T03:56:36.344Z,62.80
2023-03-02T04:01:45.690Z,57.90
2023-03-02T04:06:52.856Z,57.80
2023-03-02T04:12:00.367Z,66.60
2023-03-02T04:17:07.573Z,79.00
2023-03-02T04:22:20.041Z,79.20
2023-03-02T04:27:26.346Z,70.10
2023-03-02T04:32:32.790Z,68.30
2023-03-02T04:37:39.629Z,68.70
2023-03-02T04:42:47.242Z,71.20
2023-03-02T04:47:53.199Z,67.40
2023-03-02T04:52:59.804Z,68.70
2023-03-02T04:58:06.809Z,69.90
2023-03-02T05:03:13.262Z,64.80
2023-03-02T05:08:19.255Z,66.10
2023-03-02T05:13:25.634Z,71.30
2023-03-02T05:18:31.532Z,74.10
2023-03-02T05:23:37.831Z,71.70
2023-03-02T05:28:44.110Z,67.80
2023-03-02T05:33:49.921Z,73.90
2023-03-02T05:38:56.250Z,76.90
2023-03-02T05:44:02.702Z,77.00
2023-03-02T05:49:08.628Z,75.20
2023-03-02T05:54:16.185Z,68.50
2023-03-02T05:59:21.817Z,72.00
2023-03-02T06:04:28.145Z,75.70
2023-03-02T06:09:34.290Z,97.70
2023-03-02T06:14:42.353Z,94.10
2023-03-02T06:19:48.240Z,69.30
2023-03-02T06:24:57.587Z,74.00
2023-03-02T06:30:03.821Z,85.20
2023-03-02T06:35:11.335Z,83.70
2023-03-02T06:40:18.021Z,82.40
2023-03-02T06:45:24.679Z,81.20
2023-03-02T06:50:31.048Z,83.10
2023-03-02T06:55:37.612Z,76.80
2023-03-02T07:00:44.091Z,75.60
2023-03-02T07:05:52.210Z,72.40
2023-03-02T07:10:59.209Z,66.40
2023-03-02T07:16:11.577Z,67.30
2023-03-02T07:21:21.146Z,77.30
2023-03-02T07:26:28.083Z,70.10
2023-03-02T07:31:35.576Z,71.20
2023-03-02T07:36:42.963Z,86.90
2023-03-02T07:41:50.640Z,76.90
2023-03-02T07:47:01.069Z,72.40
2023-03-02T07:52:08.372Z,67.80
2023-03-02T07:57:16.501Z,68.60
2023-03-02T08:02:25.739Z,70.50
2023-03-02T08:07:32.456Z,72.10
2023-03-02T08:12:39.326Z,65.20
2023-03-02T08:17:45.705Z,63.50
2023-03-02T08:22:52.577Z,69.00
2023-03-02T08:27:59.748Z,65.90
2023-03-02T08:33:07.366Z,63.00
2023-03-02T08:38:13.769Z,58.60
2023-03-02T08:43:20.998Z,54.10
2023-03-02T08:48:28.996Z,66.10
2023-03-02T08:53:37.127Z,47.60
2023-03-02T08:58:43.516Z,32.50
2023-03-02T09:03:50.194Z,43.60
2023-03-02T09:08:56.708Z,44.90
2023-03-02T09:14:03.639Z,34.90
2023-03-02T09:19:09.963Z,35.70
2023-03-02T09:24:17.785Z,31.00
2023-03-02T09:29:23.672Z,32.30
2023-03-02T09:34:30.342Z,32.70
2023-03-02T09:39:37.629Z,32.70
2023-03-02T09:45:21.434Z,36.30
2023-03-02T09:50:33.822Z,37.50
2023-03-02T09:55:40.693Z,36.20
2023-03-02T10:00:48.154Z,32.50
2023-03-02T10:05:56.080Z,29.30
2023-03-02T10:11:12.206Z,35.10
2023-03-02T10:16:31.669Z,36.80
2023-03-02T10:21:43.103Z,33.40
2023-03-02T10:32:04.188Z,42.10
2023-03-02T10:37:17.011Z,31.20
2023-03-02T10:42:28.830Z,29.50
2023-03-02T10:47:34.862Z,38.70
2023-03-02T10:52:59.483Z,36.90
2023-03-02T10:58:20.285Z,34.80
2023-03-02T11:03:27.600Z,32.20
2023-03-02T11:08:33.577Z,30.80
2023-03-02T11:13:41.298Z,35.10
2023-03-02T11:18:52.755Z,38.90
2023-03-02T11:24:06.040Z,37.80
2023-03-02T11:29:22.948Z,34.60
2023-03-02T11:34:34.953Z,24.30
2023-03-02T11:40:00.141Z,24.10
2023-03-02T11:45:20.960Z,17.60
2023-03-02T11:50:27.440Z,18.50
2023-03-02T11:55:39.787Z,20.10
2023-03-02T12:00:46.669Z,21.90
2023-03-02T12:06:06.063Z,24.50
2023-03-02T12:11:34.141Z,26.90
2023-03-02T12:16:41.738Z,27.80
2023-03-02T12:21:58.570Z,24.20
2023-03-02T12:27:09.561Z,18.90
2023-03-02T12:32:25.613Z,17.20
2023-03-02T12:37:38.526Z,19.30
2023-03-02T12:43:00.673Z,15.70
2023-03-02T12:48:24.149Z,16.20
2023-03-02T12:53:30.672Z,13.10
2023-03-02T12:58:37.105Z,14.40
2023-03-02T13:03:50.006Z,14.50
2023-03-02T13:08:59.142Z,16.80
2023-03-02T13:14:21.147Z,18.10
2023-03-02T13:19:30.778Z,18.30
2023-03-02T13:24:50.450Z,16.50
2023-03-02T13:30:08.750Z,21.70
2023-03-02T13:35:26.454Z,22.10
2023-03-02T13:40:42.886Z,23.30
2023-03-02T13:45:56.218Z,21.10
2023-03-02T13:51:14.497Z,21.60
2023-03-02T13:56:23.748Z,22.10
2023-03-02T14:01:30.575Z,21.80
2023-03-02T14:06:38.489Z,21.00
2023-03-02T14:11:49.920Z,22.60
2023-03-02T14:16:56.543Z,19.90
2023-03-02T14:22:03.657Z,21.00
2023-03-02T14:27:13.741Z,17.30
2023-03-02T14:32:21.852Z,14.70
2023-03-02T14:37:33.238Z,15.20
2023-03-02T14:42:41.357Z,16.60
2023-03-02T14:47:49.075Z,16.70
2023-03-02T14:52:58.099Z,16.90
2023-03-02T14:58:13.529Z,21.20
2023-03-02T15:03:25.653Z,19.80
2023-03-02T15:08:33.056Z,21.50
2023-03-02T15:13:38.961Z,19.50
2023-03-02T15:18:45.109Z,35.40
2023-03-02T15:23:51.651Z,28.70
2023-03-02T15:28:57.923Z,40.60
2023-03-02T15:34:04.078Z,24.60
2023-03-02T15:39:14.406Z,21.10
2023-03-02T15:44:23.093Z,21.10
2023-03-02T15:49:32.233Z,21.40
2023-03-02T15:54:38.110Z,19.20
2023-03-02T15:59:44.732Z,22.80
2023-03-02T16:04:51.097Z,19.70
2023-03-02T16:09:57.807Z,19.70
2023-03-02T16:15:04.401Z,18.50
2023-03-02T16:20:13.115Z,22.30
2023-03-02T16:25:19.551Z,27.40
2023-03-02T16:30:25.449Z,30.30
2023-03-02T16:35:33.299Z,29.80
2023-03-02T16:40:40.229Z,33.00
2023-03-02T16:45:47.634Z,33.30
2023-03-02T16:50:58.378Z,29.50
2023-03-02T16:56:04.853Z,29.40
2023-03-02T17:01:13.172Z,88.60
2023-03-02T17:06:22.644Z,107.20
2023-03-02T17:11:29.114Z,99.70
2023-03-02T17:16:34.751Z,172.00
2023-03-02T17:21:40.926Z,97.20
2023-03-02T17:26:47.281Z,112.90
2023-03-02T17:31:53.831Z,115.10
2023-03-02T17:37:00.787Z,100.00
2023-03-02T17:42:07.435Z,89.40
2023-03-02T17:47:15.572Z,101.50
2023-03-02T17:52:21.964Z,95.10
2023-03-02T17:57:28.486Z,98.20
2023-03-02T18:02:34.604Z,103.70
2023-03-02T18:07:40.475Z,124.80
2023-03-02T18:12:47.651Z,122.10
2023-03-02T18:17:53.722Z,127.30
2023-03-02T18:23:00.423Z,123.80
2023-03-02T18:28:07.517Z,117.20
2023-03-02T18:33:14.149Z,102.60
2023-03-02T18:38:20.520Z,111.00
2023-03-02T18:43:27.385Z,100.80
2023-03-02T18:48:34.384Z,110.80
2023-03-02T18:53:41.162Z,154.50
2023-03-02T18:58:48.595Z,139.80
2023-03-02T19:03:56.908Z,155.90
2023-03-02T19:09:03.013Z,155.00
2023-03-02T19:14:08.890Z,151.70
2023-03-02T19:19:15.191Z,151.00
2023-03-02T19:24:21.116Z,151.40
2023-03-02T19:29:28.578Z,177.90
2023-03-02T19:34:34.333Z,167.90
2023-03-02T19:39:40.618Z,163.70
2023-03-02T19:44:46.347Z,178.10
2023-03-02T19:49:52.121Z,164.20
2023-03-02T19:54:58.733Z,168.00
2023-03-02T20:00:06.791Z,163.10
2023-03-02T20:05:13.440Z,158.70
2023-03-02T20:10:28.748Z,149.40
2023-03-02T20:15:38.134Z,144.20
2023-03-02T20:20:45.629Z,132.00
2023-03-02T20:25:51.930Z,152.70
2023-03-02T20:31:00.494Z,175.70
2023-03-02T20:36:08.099Z,165.00
2023-03-02T20:41:15.590Z,155.50
2023-03-02T20:46:25.482Z,146.90
2023-03-02T20:51:32.469Z,151.60
2023-03-02T20:56:38.357Z,158.60
2023-03-02T21:01:44.979Z,144.60
2023-03-02T21:06:51.619Z,143.30
2023-03-02T21:11:58.942Z,145.60
2023-03-02T21:17:05.625Z,155.00
2023-03-02T21:22:11.519Z,196.90
2023-03-02T21:27:17.480Z,199.60
2023-03-02T21:32:23.330Z,203.30
2023-03-02T21:37:29.018Z,203.20
2023-03-02T21:42:34.846Z,184.90
2023-03-02T21:47:41.513Z,196.70
2023-03-02T21:52:47.152Z,168.80
2023-03-02T21:57:52.851Z,183.30
2023-03-02T22:02:58.728Z,159.50
2023-03-02T22:08:04.620Z,204.60
2023-03-02T22:13:21.993Z,208.20
2023-03-02T22:18:28.578Z,254.90
2023-03-02T22:23:34.562Z,228.90
2023-03-02T22:28:41.844Z,217.40
2023-03-02T22:33:48.374Z,217.60
2023-03-02T22:38:56.800Z,211.60
2023-03-02T22:44:03.157Z,205.00
2023-03-02T22:49:16.420Z,182.10
2023-03-02T22:54:30.900Z,174.80
2023-03-02T22:59:38.738Z,165.50
2023-03-02T23:04:45.579Z,177.10
2023-03-02T23:09:51.401Z,188.90
2023-03-02T23:14:59.090Z,189.90
2023-03-02T23:20:13.045Z,184.70
2023-03-02T23:25:19.463Z,176.40
2023-03-02T23:30:25.682Z,146.00
2023-03-02T23:35:31.478Z,153.70
2023-03-02T23:40:37.581Z,129.10
2023-03-02T23:45:43.500Z,116.80
2023-03-02T23:50:49.411Z,106.20
2023-03-02T23:55:56.266Z,92.80
